sensor_id;sensor_type;location;lat;lon;timestamp;pressure;altitude;pressure_sealevel;temperature;humidity
68489;BME280;55481;48.764;8.936;2022-11-02T00:00:23;97620;;;6.9;78
68489;BME280;55481;48.764;8.936;2022-11-02T00:02:53;97620;;;6.9;78
68489;BME280;55481;48.764;8.936;2022-11-02T00:05:25;97620;;;6.9;78
68489;BME280;55481;48.764;8.936;2022-11-02T00:10:19;97610;;;6.9;77.5
68489;BME280;55481;48.764;8.936;2022-11-02T00:12:50;97620;;;6.8;78
68489;BME280;55481;48.764;8.936;2022-11-02T00:22:54;97620;;;6.8;78
68489;BME280;55481;48.764;8.936;2022-11-02T00:25:24;97620;;;7;77.5
68489;BME280;55481;48.764;8.936;2022-11-02T00:27:55;97620;;;7.1;77
68489;BME280;55481;48.764;8.936;2022-11-02T00:32:56;97620;;;7.1;77
68489;BME280;55481;48.764;8.936;2022-11-02T00:38:10;97630;;;7.2;77
68489;BME280;55481;48.764;8.936;2022-11-02T00:40:40;97630;;;7.2;77
68489;BME280;55481;48.764;8.936;2022-11-02T00:43:04;97630;;;7.2;77
68489;BME280;55481;48.764;8.936;2022-11-02T00:45:35;97630;;;7.1;77.5
68489;BME280;55481;48.764;8.936;2022-11-02T00:48:12;97640;;;6.9;77.5
68489;BME280;55481;48.764;8.936;2022-11-02T00:50:44;97640;;;7.1;77.5
68489;BME280;55481;48.764;8.936;2022-11-02T00:53:08;97630;;;7.1;77
68489;BME280;55481;48.764;8.936;2022-11-02T00:58:03;97630;;;7.1;77
68489;BME280;55481;48.764;8.936;2022-11-02T01:00:34;97640;;;7.1;77
68489;BME280;55481;48.764;8.936;2022-11-02T01:03:05;97630;;;7.1;77
68489;BME280;55481;48.764;8.936;2022-11-02T01:08:07;97630;;;7;77.5
68489;BME280;55481;48.764;8.936;2022-11-02T01:10:37;97640;;;7.1;77.5
68489;BME280;55481;48.764;8.936;2022-11-02T01:15:44;97640;;;7;77.5
68489;BME280;55481;48.764;8.936;2022-11-02T01:18:15;97640;;;7.1;77.5
68489;BME280;55481;48.764;8.936;2022-11-02T01:20:47;97630;;;7.2;77
68489;BME280;55481;48.764;8.936;2022-11-02T01:23:17;97630;;;7.2;77
68489;BME280;55481;48.764;8.936;2022-11-02T01:25:48;97630;;;7.4;76.5
68489;BME280;55481;48.764;8.936;2022-11-02T01:28:26;97620;;;7.4;76.5
68489;BME280;55481;48.764;8.936;2022-11-02T01:30:56;97620;;;7.5;76.5
68489;BME280;55481;48.764;8.936;2022-11-02T01:33:21;97620;;;7.8;76
68489;BME280;55481;48.764;8.936;2022-11-02T01:35:51;97630;;;8;76
68489;BME280;55481;48.764;8.936;2022-11-02T01:38:22;97620;;;8.2;75.5
68489;BME280;55481;48.764;8.936;2022-11-02T01:43:30;97610;;;8.2;75.5
68489;BME280;55481;48.764;8.936;2022-11-02T01:46:12;97610;;;8.2;75.5
68489;BME280;55481;48.764;8.936;2022-11-02T01:48:25;97610;;;8.3;75.5
68489;BME280;55481;48.764;8.936;2022-11-02T01:50:55;97600;;;8.4;75.5
68489;BME280;55481;48.764;8.936;2022-11-02T01:53:25;97600;;;8.5;75.5
68489;BME280;55481;48.764;8.936;2022-11-02T01:56:03;97600;;;8.7;75
68489;BME280;55481;48.764;8.936;2022-11-02T02:00:53;97580;;;8.9;75
68489;BME280;55481;48.764;8.936;2022-11-02T02:06:07;97570;;;9.1;74.5
68489;BME280;55481;48.764;8.936;2022-11-02T02:08:38;97570;;;9;75
68489;BME280;55481;48.764;8.936;2022-11-02T02:11:38;97570;;;9;75
68489;BME280;55481;48.764;8.936;2022-11-02T02:18:37;97560;;;9.1;75.5
68489;BME280;55481;48.764;8.936;2022-11-02T02:21:18;97560;;;9;75.5
68489;BME280;55481;48.764;8.936;2022-11-02T02:24:09;97560;;;9;75.5
68489;BME280;55481;48.764;8.936;2022-11-02T02:26:09;97560;;;9;75.5
68489;BME280;55481;48.764;8.936;2022-11-02T02:31:14;97560;;;9.2;75.5
68489;BME280;55481;48.764;8.936;2022-11-02T02:34:48;97550;;;9.2;75
68489;BME280;55481;48.764;8.936;2022-11-02T02:36:12;97550;;;9.3;75
68489;BME280;55481;48.764;8.936;2022-11-02T02:38:41;97550;;;9.2;75.5
68489;BME280;55481;48.764;8.936;2022-11-02T02:41:28;97550;;;9.2;75.5
68489;BME280;55481;48.764;8.936;2022-11-02T02:48:48;97550;;;9.3;75
68489;BME280;55481;48.764;8.936;2022-11-02T02:51:20;97550;;;9.3;75.5
68489;BME280;55481;48.764;8.936;2022-11-02T02:53:50;97550;;;9.3;75.5
68489;BME280;55481;48.764;8.936;2022-11-02T02:58:46;97540;;;9.3;75.5
68489;BME280;55481;48.764;8.936;2022-11-02T03:01:13;97540;;;9.3;75.5
68489;BME280;55481;48.764;8.936;2022-11-02T03:03:44;97540;;;9.3;75.5
68489;BME280;55481;48.764;8.936;2022-11-02T03:06:22;97540;;;9.2;76
68489;BME280;55481;48.764;8.936;2022-11-02T03:09:27;97540;;;9.3;75.5
68489;BME280;55481;48.764;8.936;2022-11-02T03:13:59;97540;;;9.3;75.5
68489;BME280;55481;48.764;8.936;2022-11-02T03:18:46;97550;;;9.3;75.5
68489;BME280;55481;48.764;8.936;2022-11-02T03:24:00;97550;;;9.4;75.5
68489;BME280;55481;48.764;8.936;2022-11-02T03:26:21;97550;;;9.3;76
68489;BME280;55481;48.764;8.936;2022-11-02T03:28:52;97550;;;9.4;75.5
68489;BME280;55481;48.764;8.936;2022-11-02T03:33:51;97550;;;9.5;75.5
68489;BME280;55481;48.764;8.936;2022-11-02T03:38:55;97560;;;9.4;75.5
68489;BME280;55481;48.764;8.936;2022-11-02T03:41:25;97560;;;9.4;75.5
68489;BME280;55481;48.764;8.936;2022-11-02T03:44:01;97560;;;9.4;75.5
68489;BME280;55481;48.764;8.936;2022-11-02T03:46:27;97560;;;9.4;76
68489;BME280;55481;48.764;8.936;2022-11-02T03:48:51;97560;;;9.4;75.5
68489;BME280;55481;48.764;8.936;2022-11-02T03:51:22;97570;;;9.4;76
68489;BME280;55481;48.764;8.936;2022-11-02T04:01:26;97570;;;9.4;75.5
68489;BME280;55481;48.764;8.936;2022-11-02T04:03:56;97580;;;9.4;76
68489;BME280;55481;48.764;8.936;2022-11-02T04:06:26;97580;;;9.4;75.5
68489;BME280;55481;48.764;8.936;2022-11-02T04:08:57;97580;;;9.4;76
68489;BME280;55481;48.764;8.936;2022-11-02T04:11:41;97580;;;9.3;76
68489;BME280;55481;48.764;8.936;2022-11-02T04:14:12;97580;;;9.4;76
68489;BME280;55481;48.764;8.936;2022-11-02T04:19:13;97580;;;9.4;75.5
68489;BME280;55481;48.764;8.936;2022-11-02T04:21:37;97580;;;9.4;75.5
68489;BME280;55481;48.764;8.936;2022-11-02T04:24:08;97580;;;9.4;75.5
68489;BME280;55481;48.764;8.936;2022-11-02T04:26:38;97580;;;9.4;76
68489;BME280;55481;48.764;8.936;2022-11-02T04:29:03;97580;;;9.4;75.5
68489;BME280;55481;48.764;8.936;2022-11-02T04:31:34;97590;;;9.5;75.5
68489;BME280;55481;48.764;8.936;2022-11-02T04:34:04;97590;;;9.4;76
68489;BME280;55481;48.764;8.936;2022-11-02T04:36:35;97590;;;9.3;76
68489;BME280;55481;48.764;8.936;2022-11-02T04:39:06;97590;;;9.3;76
68489;BME280;55481;48.764;8.936;2022-11-02T04:46:51;97590;;;9.2;76
68489;BME280;55481;48.764;8.936;2022-11-02T04:51:45;97600;;;9.2;76
68489;BME280;55481;48.764;8.936;2022-11-02T04:54:16;97600;;;9.2;76
68489;BME280;55481;48.764;8.936;2022-11-02T04:56:47;97600;;;9.2;76
68489;BME280;55481;48.764;8.936;2022-11-02T04:59:13;97610;;;9.1;76
68489;BME280;55481;48.764;8.936;2022-11-02T05:01:42;97600;;;9.2;76
68489;BME280;55481;48.764;8.936;2022-11-02T05:04:13;97610;;;9.3;76
68489;BME280;55481;48.764;8.936;2022-11-02T05:09:15;97600;;;9.3;75.5
68489;BME280;55481;48.764;8.936;2022-11-02T05:16:47;97610;;;9.2;76
68489;BME280;55481;48.764;8.936;2022-11-02T05:19:18;97610;;;9.3;76
68489;BME280;55481;48.764;8.936;2022-11-02T05:22:15;97610;;;9.2;76
68489;BME280;55481;48.764;8.936;2022-11-02T05:24:32;97610;;;9.3;75.5
68489;BME280;55481;48.764;8.936;2022-11-02T05:29:26;97620;;;9.3;75.5
68489;BME280;55481;48.764;8.936;2022-11-02T05:31:57;97620;;;9.4;75.5
68489;BME280;55481;48.764;8.936;2022-11-02T05:34:28;97620;;;9.6;75
68489;BME280;55481;48.764;8.936;2022-11-02T05:36:59;97610;;;9.5;75
68489;BME280;55481;48.764;8.936;2022-11-02T05:39:30;97620;;;9.5;75
68489;BME280;55481;48.764;8.936;2022-11-02T05:42:07;97620;;;9.5;75.5
68489;BME280;55481;48.764;8.936;2022-11-02T05:44:38;97620;;;9.4;75.5
68489;BME280;55481;48.764;8.936;2022-11-02T05:47:03;97630;;;9.4;75.5
68489;BME280;55481;48.764;8.936;2022-11-02T05:49:34;97630;;;9.5;75.5
68489;BME280;55481;48.764;8.936;2022-11-02T05:52:05;97630;;;9.6;75.5
68489;BME280;55481;48.764;8.936;2022-11-02T05:54:36;97630;;;9.6;75.5
68489;BME280;55481;48.764;8.936;2022-11-02T05:57:00;97630;;;9.7;75
68489;BME280;55481;48.764;8.936;2022-11-02T05:59:31;97630;;;9.6;75.5
68489;BME280;55481;48.764;8.936;2022-11-02T06:02:02;97630;;;9.6;75.5
68489;BME280;55481;48.764;8.936;2022-11-02T06:04:32;97640;;;9.5;75.5
68489;BME280;55481;48.764;8.936;2022-11-02T06:12:05;97650;;;9.6;75.5
68489;BME280;55481;48.764;8.936;2022-11-02T06:14:42;97650;;;9.6;75.5
68489;BME280;55481;48.764;8.936;2022-11-02T06:17:13;97660;;;9.5;75.5
68489;BME280;55481;48.764;8.936;2022-11-02T06:19:45;97660;;;9.5;75.5
68489;BME280;55481;48.764;8.936;2022-11-02T06:24:46;97660;;;9.6;75.5
68489;BME280;55481;48.764;8.936;2022-11-02T06:27:17;97670;;;9.7;75.5
68489;BME280;55481;48.764;8.936;2022-11-02T06:32:12;97670;;;9.9;75
68489;BME280;55481;48.764;8.936;2022-11-02T06:42:15;97680;;;10.3;74.5
68489;BME280;55481;48.764;8.936;2022-11-02T06:49:47;97700;;;10.4;74.5
68489;BME280;55481;48.764;8.936;2022-11-02T06:52:18;97700;;;10;75.5
68489;BME280;55481;48.764;8.936;2022-11-02T06:55:02;97710;;;9.9;76
68489;BME280;55481;48.764;8.936;2022-11-02T06:57:35;97720;;;9.9;76
68489;BME280;55481;48.764;8.936;2022-11-02T06:59:56;97720;;;9.8;76
68489;BME280;55481;48.764;8.936;2022-11-02T07:02:27;97720;;;9.8;76
68489;BME280;55481;48.764;8.936;2022-11-02T07:04:58;97730;;;10;76
68489;BME280;55481;48.764;8.936;2022-11-02T07:07:30;97730;;;10.1;75.5
68489;BME280;55481;48.764;8.936;2022-11-02T07:12:44;97730;;;10.4;75
68489;BME280;55481;48.764;8.936;2022-11-02T07:15:20;97730;;;10.5;75
68489;BME280;55481;48.764;8.936;2022-11-02T07:20:01;97740;;;10.7;74.5
68489;BME280;55481;48.764;8.936;2022-11-02T07:22:32;97740;;;10.8;74.5
68489;BME280;55481;48.764;8.936;2022-11-02T07:25:03;97740;;;10.9;74.5
68489;BME280;55481;48.764;8.936;2022-11-02T07:27:38;97740;;;11;74
68489;BME280;55481;48.764;8.936;2022-11-02T07:29:58;97740;;;11.1;74
68489;BME280;55481;48.764;8.936;2022-11-02T07:40:03;97750;;;11.5;73.5
68489;BME280;55481;48.764;8.936;2022-11-02T07:42:32;97740;;;11.5;73.5
68489;BME280;55481;48.764;8.936;2022-11-02T07:47:39;97750;;;11.5;74
68489;BME280;55481;48.764;8.936;2022-11-02T07:52:49;97750;;;11.6;74
68489;BME280;55481;48.764;8.936;2022-11-02T07:55:19;97760;;;11.6;74
68489;BME280;55481;48.764;8.936;2022-11-02T07:58:05;97760;;;11.7;74
68489;BME280;55481;48.764;8.936;2022-11-02T08:02:53;97770;;;11.8;73.5
68489;BME280;55481;48.764;8.936;2022-11-02T08:05:22;97770;;;11.8;73.5
68489;BME280;55481;48.764;8.936;2022-11-02T08:07:56;97770;;;11.8;73.5
68489;BME280;55481;48.764;8.936;2022-11-02T08:10:32;97760;;;11.9;73.5
68489;BME280;55481;48.764;8.936;2022-11-02T08:12:41;97770;;;11.9;74
68489;BME280;55481;48.764;8.936;2022-11-02T08:17:42;97770;;;11.9;73.5
68489;BME280;55481;48.764;8.936;2022-11-02T08:20:12;97770;;;12;74
68489;BME280;55481;48.764;8.936;2022-11-02T08:27:45;97780;;;12.3;73
68489;BME280;55481;48.764;8.936;2022-11-02T08:32:45;97780;;;12.4;73
68489;BME280;55481;48.764;8.936;2022-11-02T08:35:48;97770;;;12.4;73
68489;BME280;55481;48.764;8.936;2022-11-02T08:38:09;97770;;;12.5;73
68489;BME280;55481;48.764;8.936;2022-11-02T08:40:40;97780;;;12.6;73
68489;BME280;55481;48.764;8.936;2022-11-02T08:48:00;97780;;;12.7;73
68489;BME280;55481;48.764;8.936;2022-11-02T08:50:31;97780;;;12.7;73
68489;BME280;55481;48.764;8.936;2022-11-02T08:53:06;97780;;;12.8;73
68489;BME280;55481;48.764;8.936;2022-11-02T08:55:40;97780;;;12.7;73
68489;BME280;55481;48.764;8.936;2022-11-02T08:57:51;97780;;;12.7;73.5
68489;BME280;55481;48.764;8.936;2022-11-02T09:00:21;97770;;;12.6;73.5
68489;BME280;55481;48.764;8.936;2022-11-02T09:03:21;97770;;;12.6;73.5
68489;BME280;55481;48.764;8.936;2022-11-02T09:05:21;97780;;;12.6;73.5
68489;BME280;55481;48.764;8.936;2022-11-02T09:07:59;97780;;;12.7;73.5
68489;BME280;55481;48.764;8.936;2022-11-02T09:10:22;97780;;;12.7;73.5
68489;BME280;55481;48.764;8.936;2022-11-02T09:17:53;97780;;;12.9;73
68489;BME280;55481;48.764;8.936;2022-11-02T09:20:25;97780;;;12.9;73
68489;BME280;55481;48.764;8.936;2022-11-02T09:22:54;97780;;;13;73
68489;BME280;55481;48.764;8.936;2022-11-02T09:25:25;97780;;;13;73
68489;BME280;55481;48.764;8.936;2022-11-02T09:27:56;97770;;;13;73
68489;BME280;55481;48.764;8.936;2022-11-02T09:30:26;97780;;;13;73
68489;BME280;55481;48.764;8.936;2022-11-02T09:38:08;97780;;;13.4;72.5
68489;BME280;55481;48.764;8.936;2022-11-02T09:40:50;97790;;;13.3;72.5
68489;BME280;55481;48.764;8.936;2022-11-02T09:45:43;97780;;;13.4;72.5
68489;BME280;55481;48.764;8.936;2022-11-02T09:50:41;97800;;;13.3;73
68489;BME280;55481;48.764;8.936;2022-11-02T09:53:11;97800;;;13.5;72.5
68489;BME280;55481;48.764;8.936;2022-11-02T09:55:47;97800;;;13.4;72.5
68489;BME280;55481;48.764;8.936;2022-11-02T09:57:59;97810;;;13.4;72.5
68489;BME280;55481;48.764;8.936;2022-11-02T10:03:02;97810;;;13.3;73
68489;BME280;55481;48.764;8.936;2022-11-02T10:10:32;97800;;;13.4;72.5
68489;BME280;55481;48.764;8.936;2022-11-02T10:13:20;97800;;;13.4;72.5
68489;BME280;55481;48.764;8.936;2022-11-02T10:15:36;97790;;;13.3;73
68489;BME280;55481;48.764;8.936;2022-11-02T10:18:02;97790;;;13.3;72.5
68489;BME280;55481;48.764;8.936;2022-11-02T10:25:34;97790;;;13.3;72.5
68489;BME280;55481;48.764;8.936;2022-11-02T10:28:25;97790;;;13.4;72.5
68489;BME280;55481;48.764;8.936;2022-11-02T10:33:09;97790;;;13.4;72.5
68489;BME280;55481;48.764;8.936;2022-11-02T10:35:53;97790;;;13.4;72.5
68489;BME280;55481;48.764;8.936;2022-11-02T10:38:20;97800;;;13.4;72.5
68489;BME280;55481;48.764;8.936;2022-11-02T10:40:52;97790;;;13.5;72.5
68489;BME280;55481;48.764;8.936;2022-11-02T10:45:47;97790;;;13.7;72
68489;BME280;55481;48.764;8.936;2022-11-02T10:53:12;97790;;;13.8;71.5
68489;BME280;55481;48.764;8.936;2022-11-02T10:55:42;97790;;;13.6;72
68489;BME280;55481;48.764;8.936;2022-11-02T10:58:10;97780;;;13.6;72
68489;BME280;55481;48.764;8.936;2022-11-02T11:00:39;97790;;;13.6;72
68489;BME280;55481;48.764;8.936;2022-11-02T11:03:12;97790;;;13.5;72
68489;BME280;55481;48.764;8.936;2022-11-02T11:05:51;97790;;;13.4;72.5
68489;BME280;55481;48.764;8.936;2022-11-02T11:08:22;97780;;;13.5;72.5
68489;BME280;55481;48.764;8.936;2022-11-02T11:10:53;97790;;;13.6;72
68489;BME280;55481;48.764;8.936;2022-11-02T11:13:23;97790;;;13.6;72
68489;BME280;55481;48.764;8.936;2022-11-02T11:15:52;97780;;;13.6;72
68489;BME280;55481;48.764;8.936;2022-11-02T11:18:23;97780;;;13.8;71.5
68489;BME280;55481;48.764;8.936;2022-11-02T11:20:42;97780;;;13.9;71
68489;BME280;55481;48.764;8.936;2022-11-02T11:28:22;97770;;;14.2;71
68489;BME280;55481;48.764;8.936;2022-11-02T11:30:44;97780;;;14.4;70.5
68489;BME280;55481;48.764;8.936;2022-11-02T11:33:14;97780;;;14.5;70.5
68489;BME280;55481;48.764;8.936;2022-11-02T11:35:46;97770;;;14.6;70
68489;BME280;55481;48.764;8.936;2022-11-02T11:38:20;97770;;;14.5;70.5
68489;BME280;55481;48.764;8.936;2022-11-02T11:45:53;97770;;;14.2;71.5
68489;BME280;55481;48.764;8.936;2022-11-02T11:48:49;97770;;;14.4;71
68489;BME280;55481;48.764;8.936;2022-11-02T11:50:48;97770;;;14.9;70
68489;BME280;55481;48.764;8.936;2022-11-02T11:53:19;97760;;;15.2;69.5
68489;BME280;55481;48.764;8.936;2022-11-02T11:58:31;97750;;;15.3;69.5
68489;BME280;55481;48.764;8.936;2022-11-02T12:01:16;97740;;;15;70
68489;BME280;55481;48.764;8.936;2022-11-02T12:04:05;97740;;;15;70.5
68489;BME280;55481;48.764;8.936;2022-11-02T12:06:05;97740;;;15;70.5
68489;BME280;55481;48.764;8.936;2022-11-02T12:08:34;97730;;;15.2;70
68489;BME280;55481;48.764;8.936;2022-11-02T12:21:28;97720;;;14.7;71
68489;BME280;55481;48.764;8.936;2022-11-02T12:23:38;97720;;;14.5;71
68489;BME280;55481;48.764;8.936;2022-11-02T12:26:23;97710;;;14.6;71
68489;BME280;55481;48.764;8.936;2022-11-02T12:31:13;97710;;;14.7;70.5
68489;BME280;55481;48.764;8.936;2022-11-02T12:33:45;97710;;;14.6;70.5
68489;BME280;55481;48.764;8.936;2022-11-02T12:38:38;97710;;;14.9;70
68489;BME280;55481;48.764;8.936;2022-11-02T12:41:20;97700;;;14.9;70
68489;BME280;55481;48.764;8.936;2022-11-02T12:43:48;97700;;;14.8;70
68489;BME280;55481;48.764;8.936;2022-11-02T12:46:37;97700;;;14.9;70
68489;BME280;55481;48.764;8.936;2022-11-02T12:49:02;97700;;;14.9;70
68489;BME280;55481;48.764;8.936;2022-11-02T12:53:46;97700;;;14.8;70
68489;BME280;55481;48.764;8.936;2022-11-02T12:56:11;97700;;;14.9;70
68489;BME280;55481;48.764;8.936;2022-11-02T12:58:38;97700;;;14.8;70
68489;BME280;55481;48.764;8.936;2022-11-02T13:08:33;97700;;;14.8;70
68489;BME280;55481;48.764;8.936;2022-11-02T13:11:00;97690;;;15;69
68489;BME280;55481;48.764;8.936;2022-11-02T13:13:35;97690;;;14.7;69.5
68489;BME280;55481;48.764;8.936;2022-11-02T13:16:00;97690;;;14.2;70.5
68489;BME280;55481;48.764;8.936;2022-11-02T13:18:37;97680;;;14.4;70.5
68489;BME280;55481;48.764;8.936;2022-11-02T13:21:01;97680;;;14.6;70
68489;BME280;55481;48.764;8.936;2022-11-02T13:23:42;97690;;;14.7;69.5
68489;BME280;55481;48.764;8.936;2022-11-02T13:26:05;97690;;;14.6;69.5
68489;BME280;55481;48.764;8.936;2022-11-02T13:31:16;97690;;;14.8;69
68489;BME280;55481;48.764;8.936;2022-11-02T13:33:54;97680;;;14.9;68.5
68489;BME280;55481;48.764;8.936;2022-11-02T13:36:37;97690;;;15;68.5
68489;BME280;55481;48.764;8.936;2022-11-02T13:41:35;97680;;;14.6;69.5
68489;BME280;55481;48.764;8.936;2022-11-02T13:43:49;97680;;;14.8;69
68489;BME280;55481;48.764;8.936;2022-11-02T13:48:48;97670;;;15;68.5
68489;BME280;55481;48.764;8.936;2022-11-02T13:51:22;97670;;;14.9;68.5
68489;BME280;55481;48.764;8.936;2022-11-02T13:53:56;97670;;;15;68.5
68489;BME280;55481;48.764;8.936;2022-11-02T13:56:20;97670;;;14.9;69
68489;BME280;55481;48.764;8.936;2022-11-02T14:04:10;97680;;;14.9;69
68489;BME280;55481;48.764;8.936;2022-11-02T14:09:02;97680;;;14.9;69
68489;BME280;55481;48.764;8.936;2022-11-02T14:11:46;97670;;;14.7;69.5
68489;BME280;55481;48.764;8.936;2022-11-02T14:14:05;97670;;;14.7;69.5
68489;BME280;55481;48.764;8.936;2022-11-02T14:24:50;97670;;;14.4;69.5
68489;BME280;55481;48.764;8.936;2022-11-02T14:26:52;97670;;;14.2;70
68489;BME280;55481;48.764;8.936;2022-11-02T14:29:09;97670;;;14.2;70
68489;BME280;55481;48.764;8.936;2022-11-02T14:33:59;97670;;;14.2;69.5
68489;BME280;55481;48.764;8.936;2022-11-02T14:36:32;97670;;;14.1;70
68489;BME280;55481;48.764;8.936;2022-11-02T14:38:57;97670;;;14;70
68489;BME280;55481;48.764;8.936;2022-11-02T14:43:50;97680;;;13.9;70
68489;BME280;55481;48.764;8.936;2022-11-02T14:51:52;97670;;;14.1;69
68489;BME280;55481;48.764;8.936;2022-11-02T14:54:13;97670;;;14;69
68489;BME280;55481;48.764;8.936;2022-11-02T14:56:45;97660;;;14;69
68489;BME280;55481;48.764;8.936;2022-11-02T14:59:15;97670;;;14;69
68489;BME280;55481;48.764;8.936;2022-11-02T15:04:05;97660;;;13.5;70
68489;BME280;55481;48.764;8.936;2022-11-02T15:06:48;97660;;;13.3;70.5
68489;BME280;55481;48.764;8.936;2022-11-02T15:14:50;97650;;;13.3;70
68489;BME280;55481;48.764;8.936;2022-11-02T15:16:44;97650;;;13.3;70
68489;BME280;55481;48.764;8.936;2022-11-02T15:21:34;97650;;;13.1;70
68489;BME280;55481;48.764;8.936;2022-11-02T15:24:18;97650;;;13.1;70
68489;BME280;55481;48.764;8.936;2022-11-02T15:26:51;97650;;;12.9;70
68489;BME280;55481;48.764;8.936;2022-11-02T15:31:55;97660;;;12.6;70.5
68489;BME280;55481;48.764;8.936;2022-11-02T15:37:15;97650;;;12.3;71
68489;BME280;55481;48.764;8.936;2022-11-02T15:39:17;97650;;;12.2;71
68489;BME280;55481;48.764;8.936;2022-11-02T15:46:52;97650;;;11.8;71.5
68489;BME280;55481;48.764;8.936;2022-11-02T15:49:22;97650;;;11.6;72
68489;BME280;55481;48.764;8.936;2022-11-02T15:51:43;97650;;;11.5;72
68489;BME280;55481;48.764;8.936;2022-11-02T15:56:56;97640;;;11.3;72
68489;BME280;55481;48.764;8.936;2022-11-02T16:04:22;97650;;;11.1;72
68489;BME280;55481;48.764;8.936;2022-11-02T16:06:52;97650;;;11.1;72
68489;BME280;55481;48.764;8.936;2022-11-02T16:09:44;97650;;;11.1;72
68489;BME280;55481;48.764;8.936;2022-11-02T16:12:10;97650;;;11;72
68489;BME280;55481;48.764;8.936;2022-11-02T16:19:33;97640;;;10.7;72
68489;BME280;55481;48.764;8.936;2022-11-02T16:26:55;97650;;;10.4;72.5
68489;BME280;55481;48.764;8.936;2022-11-02T16:29:29;97650;;;10.3;72.5
68489;BME280;55481;48.764;8.936;2022-11-02T16:31:57;97650;;;10.2;72.5
68489;BME280;55481;48.764;8.936;2022-11-02T16:34:32;97640;;;10.1;73
68489;BME280;55481;48.764;8.936;2022-11-02T16:36:45;97650;;;10.1;72.5
68489;BME280;55481;48.764;8.936;2022-11-02T16:39:16;97650;;;10;72.5
68489;BME280;55481;48.764;8.936;2022-11-02T16:41:47;97650;;;9.9;72.5
68489;BME280;55481;48.764;8.936;2022-11-02T16:44:25;97650;;;9.9;72.5
68489;BME280;55481;48.764;8.936;2022-11-02T16:46:57;97650;;;9.8;72.5
68489;BME280;55481;48.764;8.936;2022-11-02T16:49:16;97650;;;9.7;72.5
68489;BME280;55481;48.764;8.936;2022-11-02T16:51:35;97650;;;9.5;73
68489;BME280;55481;48.764;8.936;2022-11-02T16:54:37;97640;;;9.5;73
68489;BME280;55481;48.764;8.936;2022-11-02T16:59:18;97640;;;9.4;73
68489;BME280;55481;48.764;8.936;2022-11-02T17:04:20;97640;;;9.3;73
68489;BME280;55481;48.764;8.936;2022-11-02T17:06:49;97640;;;9.3;73
68489;BME280;55481;48.764;8.936;2022-11-02T17:09:29;97640;;;9.2;73
68489;BME280;55481;48.764;8.936;2022-11-02T17:11:49;97640;;;9;73.5
68489;BME280;55481;48.764;8.936;2022-11-02T17:14:30;97640;;;9.1;73
68489;BME280;55481;48.764;8.936;2022-11-02T17:17:02;97640;;;9.1;73
68489;BME280;55481;48.764;8.936;2022-11-02T17:22:03;97630;;;8.9;73
68489;BME280;55481;48.764;8.936;2022-11-02T17:24:32;97640;;;8.8;73.5
68489;BME280;55481;48.764;8.936;2022-11-02T17:29:27;97640;;;8.7;73.5
68489;BME280;55481;48.764;8.936;2022-11-02T17:31:52;97640;;;8.7;73
68489;BME280;55481;48.764;8.936;2022-11-02T17:36:52;97630;;;8.5;73.5
68489;BME280;55481;48.764;8.936;2022-11-02T17:39:22;97640;;;8.5;73.5
68489;BME280;55481;48.764;8.936;2022-11-02T17:41:53;97640;;;8.5;73
68489;BME280;55481;48.764;8.936;2022-11-02T17:44:32;97630;;;8.3;73.5
68489;BME280;55481;48.764;8.936;2022-11-02T17:47:04;97620;;;8.2;74
68489;BME280;55481;48.764;8.936;2022-11-02T17:49:23;97620;;;8.1;74
68489;BME280;55481;48.764;8.936;2022-11-02T17:51:53;97630;;;8.2;73.5
68489;BME280;55481;48.764;8.936;2022-11-02T17:59:24;97620;;;7.9;74
68489;BME280;55481;48.764;8.936;2022-11-02T18:01:54;97620;;;7.9;74
68489;BME280;55481;48.764;8.936;2022-11-02T18:04:25;97620;;;8;73.5
68489;BME280;55481;48.764;8.936;2022-11-02T18:06:55;97620;;;7.9;74
68489;BME280;55481;48.764;8.936;2022-11-02T18:09:34;97620;;;8;73.5
68489;BME280;55481;48.764;8.936;2022-11-02T18:14:15;97610;;;7.7;74
68489;BME280;55481;48.764;8.936;2022-11-02T18:16:45;97620;;;7.7;74
68489;BME280;55481;48.764;8.936;2022-11-02T18:19:15;97620;;;7.8;73.5
68489;BME280;55481;48.764;8.936;2022-11-02T18:21:46;97610;;;7.9;73.5
68489;BME280;55481;48.764;8.936;2022-11-02T18:24:16;97600;;;7.9;73
68489;BME280;55481;48.764;8.936;2022-11-02T18:26:47;97600;;;7.8;73.5
68489;BME280;55481;48.764;8.936;2022-11-02T18:37:10;97600;;;7.8;73.5
68489;BME280;55481;48.764;8.936;2022-11-02T18:39:30;97600;;;7.7;73.5
68489;BME280;55481;48.764;8.936;2022-11-02T18:42:00;97600;;;7.6;74
68489;BME280;55481;48.764;8.936;2022-11-02T18:49:19;97590;;;7.5;74
68489;BME280;55481;48.764;8.936;2022-11-02T18:51:50;97590;;;7.4;74.5
68489;BME280;55481;48.764;8.936;2022-11-02T18:54:21;97590;;;7.5;74
68489;BME280;55481;48.764;8.936;2022-11-02T19:01:56;97580;;;7.5;73.5
68489;BME280;55481;48.764;8.936;2022-11-02T19:04:22;97580;;;7.3;74
68489;BME280;55481;48.764;8.936;2022-11-02T19:06:54;97590;;;7.2;74.5
68489;BME280;55481;48.764;8.936;2022-11-02T19:14:38;97580;;;7.2;74
68489;BME280;55481;48.764;8.936;2022-11-02T19:17:06;97580;;;7.3;74
68489;BME280;55481;48.764;8.936;2022-11-02T19:19:36;97580;;;7.3;74
68489;BME280;55481;48.764;8.936;2022-11-02T19:22:10;97580;;;7.2;74
68489;BME280;55481;48.764;8.936;2022-11-02T19:24:37;97580;;;7.2;74
68489;BME280;55481;48.764;8.936;2022-11-02T19:27:10;97580;;;7.1;74
68489;BME280;55481;48.764;8.936;2022-11-02T19:29:46;97580;;;7.2;74
68489;BME280;55481;48.764;8.936;2022-11-02T19:36:56;97590;;;6.8;75
68489;BME280;55481;48.764;8.936;2022-11-02T19:39:27;97580;;;6.9;74.5
68489;BME280;55481;48.764;8.936;2022-11-02T19:41:57;97580;;;6.7;75
68489;BME280;55481;48.764;8.936;2022-11-02T19:44:30;97580;;;6.7;75
68489;BME280;55481;48.764;8.936;2022-11-02T19:46:58;97580;;;6.8;74.5
68489;BME280;55481;48.764;8.936;2022-11-02T19:59:53;97580;;;6.5;75
68489;BME280;55481;48.764;8.936;2022-11-02T20:02:33;97570;;;6.5;74.5
68489;BME280;55481;48.764;8.936;2022-11-02T20:07:13;97570;;;6.6;74.5
68489;BME280;55481;48.764;8.936;2022-11-02T20:09:43;97570;;;6.7;74.5
68489;BME280;55481;48.764;8.936;2022-11-02T20:12:14;97570;;;6.7;74.5
68489;BME280;55481;48.764;8.936;2022-11-02T20:17:25;97570;;;6.6;74.5
68489;BME280;55481;48.764;8.936;2022-11-02T20:19:56;97560;;;6.5;74.5
68489;BME280;55481;48.764;8.936;2022-11-02T20:22:26;97560;;;6.3;75
68489;BME280;55481;48.764;8.936;2022-11-02T20:24:57;97560;;;6.4;75
68489;BME280;55481;48.764;8.936;2022-11-02T20:27:37;97560;;;6.4;74.5